Time;durP1;ratioP1;P1;durP2;ratioP2;P2;SDS_P1;SDS_P2;PMS_P1;PMS_P2;Temp;Humidity;BMP_temperature;BMP_pressure;BME280_temperature;BME280_humidity;BME280_pressure;Samples;Min_cycle;Max_cycle;Signal;HPM_P1;HPM_P2
2023/06/27 00:00:52;;;;;;;6.68;2.83;;;14.40;99.90;;;;;;5034299;28;20032;-83
2023/06/27 00:03:18;;;;;;;7.30;3.20;;;14.40;99.90;;;;;;5036067;28;20040;-83
2023/06/27 00:05:43;;;;;;;6.50;3.08;;;14.40;99.90;;;;;;5050897;28;20051;-83
2023/06/27 00:08:09;;;;;;;4.82;3.13;;;14.30;99.90;;;;;;5050250;28;20393;-83
2023/06/27 00:10:35;;;;;;;6.22;3.20;;;14.30;99.90;;;;;;5049273;28;20064;-84
2023/06/27 00:13:00;;;;;;;4.20;2.88;;;14.30;99.90;;;;;;5030790;28;20051;-84
2023/06/27 00:15:29;;;;;;;5.57;3.60;;;14.40;99.90;;;;;;5028137;28;20037;-83
2023/06/27 00:17:55;;;;;;;4.78;2.97;;;14.40;99.90;;;;;;5026634;28;20572;-83
2023/06/27 00:20:21;;;;;;;5.30;2.85;;;14.30;99.90;;;;;;5054766;28;20050;-84
2023/06/27 00:22:47;;;;;;;5.80;3.33;;;14.30;99.90;;;;;;5050377;28;20037;-84
2023/06/27 00:25:13;;;;;;;5.13;3.22;;;14.30;99.90;;;;;;5046193;28;20115;-84
2023/06/27 00:27:39;;;;;;;6.88;3.13;;;14.20;99.90;;;;;;5045855;28;20024;-84
2023/06/27 00:30:05;;;;;;;4.70;3.13;;;14.20;99.90;;;;;;5042034;28;20562;-83
2023/06/27 00:32:31;;;;;;;5.00;3.28;;;14.20;99.90;;;;;;5041511;28;20045;-84
2023/06/27 00:34:56;;;;;;;5.60;3.35;;;14.10;99.90;;;;;;5046619;28;20040;-84
2023/06/27 00:37:22;;;;;;;7.15;3.70;;;14.10;99.90;;;;;;5051270;28;20036;-84
2023/06/27 00:39:47;;;;;;;5.15;3.20;;;14.00;99.90;;;;;;5048912;28;20085;-84
2023/06/27 00:42:13;;;;;;;8.07;3.40;;;14.00;99.90;;;;;;5048654;28;20082;-84
2023/06/27 00:44:39;;;;;;;5.72;3.30;;;14.00;99.90;;;;;;5044575;28;20525;-85
2023/06/27 00:47:05;;;;;;;4.20;3.10;;;13.90;99.90;;;;;;5033474;28;20037;-84
2023/06/27 00:49:31;;;;;;;4.18;2.80;;;14.00;99.90;;;;;;5046177;28;20037;-84
2023/06/27 00:51:58;;;;;;;5.63;3.20;;;13.90;99.90;;;;;;5046737;28;20090;-84
2023/06/27 00:54:25;;;;;;;4.30;3.38;;;13.90;99.90;;;;;;5034341;28;20144;-84
2023/06/27 00:56:53;;;;;;;4.50;3.20;;;13.80;99.90;;;;;;5043187;28;20195;-84
2023/06/27 00:59:20;;;;;;;6.78;3.63;;;13.80;99.90;;;;;;5033579;28;20561;-84
2023/06/27 01:01:46;;;;;;;5.35;3.20;;;13.80;99.90;;;;;;5045878;28;20036;-84
2023/06/27 01:04:12;;;;;;;5.20;4.47;;;13.80;99.90;;;;;;5045572;28;20407;-84
2023/06/27 01:06:43;;;;;;;3.83;3.35;;;13.70;99.90;;;;;;5037540;28;20036;-84
2023/06/27 01:09:33;;;;;;;5.80;3.95;;;13.70;99.90;;;;;;5027442;28;20032;-84
2023/06/27 01:12:26;;;;;;;5.45;3.75;;;13.70;99.90;;;;;;5029276;28;20055;-84
2023/06/27 01:14:56;;;;;;;4.88;2.95;;;13.70;99.90;;;;;;5052288;28;20088;-84
2023/06/27 01:17:22;;;;;;;4.82;3.42;;;13.60;99.90;;;;;;5031717;28;20044;-84
2023/06/27 01:19:52;;;;;;;4.70;3.35;;;13.60;99.90;;;;;;5027676;28;20083;-84
2023/06/27 01:22:28;;;;;;;4.80;3.55;;;13.60;99.90;;;;;;5030671;28;20029;-84
2023/06/27 01:24:55;;;;;;;5.47;3.40;;;13.50;99.90;;;;;;5032279;28;20120;-84
2023/06/27 01:27:21;;;;;;;5.30;3.22;;;13.50;99.90;;;;;;5031040;28;20033;-84
2023/06/27 01:29:46;;;;;;;5.68;3.50;;;13.50;99.90;;;;;;5044930;28;20529;-84
2023/06/27 01:32:26;;;;;;;4.80;3.40;;;13.50;99.90;;;;;;5057753;28;20033;-85
2023/06/27 01:35:18;;;;;;;4.95;3.67;;;13.50;99.90;;;;;;5054141;28;20048;-85
2023/06/27 01:37:51;;;;;;;4.82;3.70;;;13.40;99.90;;;;;;5076744;23;20071;-89
2023/06/27 01:40:20;;;;;;;4.72;3.53;;;13.50;99.90;;;;;;5047279;28;20073;-89
2023/06/27 01:43:08;;;;;;;6.50;3.83;;;13.50;99.90;;;;;;5026274;28;20057;-89
2023/06/27 01:45:36;;;;;;;5.07;3.63;;;13.50;99.90;;;;;;5035133;28;20037;-89
2023/06/27 01:48:02;;;;;;;5.18;3.33;;;13.40;99.90;;;;;;5019662;28;20036;-89
2023/06/27 01:50:28;;;;;;;5.72;3.80;;;13.50;99.90;;;;;;5018603;28;20548;-89
2023/06/27 01:52:54;;;;;;;5.43;4.13;;;13.50;99.90;;;;;;5007585;28;20128;-90
2023/06/27 01:55:19;;;;;;;7.65;3.85;;;13.50;99.90;;;;;;5011041;28;20101;-89
2023/06/27 01:57:45;;;;;;;5.15;4.20;;;13.50;99.90;;;;;;5035231;28;20094;-89
2023/06/27 02:00:11;;;;;;;5.45;4.70;;;13.60;99.90;;;;;;5033306;28;20089;-89
2023/06/27 02:02:37;;;;;;;6.05;4.13;;;13.60;99.90;;;;;;5036271;28;20036;-89
2023/06/27 02:05:03;;;;;;;7.75;4.07;;;13.50;99.90;;;;;;5021695;28;20036;-89
2023/06/27 02:07:28;;;;;;;8.43;4.55;;;13.60;99.90;;;;;;5033614;28;20411;-89
2023/06/27 02:09:54;;;;;;;6.88;4.32;;;13.50;99.90;;;;;;5028450;28;20384;-89
2023/06/27 02:12:20;;;;;;;7.13;4.63;;;13.50;99.90;;;;;;5011319;28;20142;-88
2023/06/27 02:14:45;;;;;;;5.40;4.18;;;13.50;99.90;;;;;;5017516;28;20037;-89
2023/06/27 02:17:11;;;;;;;6.55;3.88;;;13.60;99.90;;;;;;5018423;28;20537;-89
2023/06/27 02:19:36;;;;;;;8.52;4.70;;;13.60;99.90;;;;;;5017375;28;20045;-89
2023/06/27 02:22:02;;;;;;;8.80;5.10;;;13.60;99.90;;;;;;5015150;28;20043;-89
2023/06/27 02:24:28;;;;;;;7.35;5.00;;;13.50;99.90;;;;;;5032592;28;20462;-89
2023/06/27 02:26:54;;;;;;;7.68;4.75;;;13.40;99.90;;;;;;5034453;28;20047;-88
2023/06/27 02:29:19;;;;;;;7.80;5.82;;;13.40;99.90;;;;;;5030036;28;20526;-89
2023/06/27 02:31:45;;;;;;;6.07;5.15;;;13.50;99.90;;;;;;5020388;28;20052;-89
2023/06/27 02:34:11;;;;;;;5.78;4.50;;;13.50;99.90;;;;;;5032536;28;20028;-89
2023/06/27 02:36:36;;;;;;;8.82;5.70;;;13.40;99.90;;;;;;5023337;28;20571;-88
2023/06/27 02:39:02;;;;;;;5.50;5.00;;;13.40;99.90;;;;;;5033877;28;20538;-89
2023/06/27 02:41:28;;;;;;;7.88;5.40;;;13.40;99.90;;;;;;5019577;28;20052;-89
2023/06/27 02:43:53;;;;;;;7.60;5.13;;;13.40;99.90;;;;;;5031688;28;20112;-89
2023/06/27 03:02:53;;;;;;;8.90;5.40;;;13.30;99.90;;;;;;5595409;22;15502207;-32
2023/06/27 03:06:19;;;;;;;8.95;5.93;;;13.30;99.90;;;;;;6175239;23;20075;-32
2023/06/27 03:21:03;;;;;;;9.43;5.93;;;13.30;99.90;;;;;;6008436;23;20448;-32
2023/06/27 03:23:29;;;;;;;13.57;6.60;;;13.30;99.90;;;;;;6002572;23;20043;-32
2023/06/27 03:25:57;;;;;;;12.18;6.35;;;13.30;99.90;;;;;;6135848;22;20087;-32
2023/06/27 03:28:23;;;;;;;8.93;6.63;;;13.30;99.90;;;;;;6249077;22;20509;-33
2023/06/27 03:30:48;;;;;;;10.32;7.38;;;13.30;99.90;;;;;;6248927;23;20016;-32
2023/06/27 03:33:14;;;;;;;11.82;6.85;;;13.40;99.90;;;;;;6249472;23;20058;-32
2023/06/27 03:35:39;;;;;;;12.80;7.57;;;13.40;99.90;;;;;;6248711;23;20004;-32
2023/06/27 03:38:05;;;;;;;9.25;6.68;;;13.40;99.90;;;;;;6249164;23;20083;-32
2023/06/27 03:40:31;;;;;;;9.80;6.68;;;13.40;99.90;;;;;;6248991;23;20673;-33
2023/06/27 03:42:57;;;;;;;11.52;7.35;;;13.40;99.90;;;;;;6249440;22;20027;-32
2023/06/27 03:45:23;;;;;;;9.85;7.68;;;13.40;99.90;;;;;;6249724;22;20015;-32
2023/06/27 03:47:49;;;;;;;11.63;6.88;;;13.40;99.90;;;;;;6248640;23;20062;-32
2023/06/27 03:50:14;;;;;;;11.43;7.07;;;13.50;99.90;;;;;;6249844;22;20008;-32
2023/06/27 03:52:40;;;;;;;11.60;7.35;;;13.50;99.90;;;;;;6247777;23;20012;-32
2023/06/27 03:55:07;;;;;;;11.88;6.72;;;13.50;99.90;;;;;;6248965;23;20351;-32
2023/06/27 03:57:33;;;;;;;10.73;7.88;;;13.50;99.90;;;;;;6242894;23;20028;-32
2023/06/27 03:59:59;;;;;;;10.77;7.35;;;13.50;99.90;;;;;;6243600;23;20014;-32
2023/06/27 04:02:24;;;;;;;10.80;7.88;;;13.50;99.90;;;;;;6241262;23;20035;-32
2023/06/27 04:04:50;;;;;;;11.50;7.25;;;13.50;99.90;;;;;;6242290;23;20019;-32
2023/06/27 04:07:16;;;;;;;8.52;7.00;;;13.50;99.90;;;;;;6241870;22;20016;-32
2023/06/27 04:09:41;;;;;;;13.30;7.45;;;13.60;99.90;;;;;;6241544;23;20012;-32
2023/06/27 04:12:08;;;;;;;10.82;7.65;;;13.60;99.90;;;;;;6240035;23;20352;-32
2023/06/27 04:14:34;;;;;;;9.10;7.70;;;13.60;99.90;;;;;;6241734;22;20336;-32
2023/06/27 04:17:00;;;;;;;12.63;7.53;;;13.70;99.90;;;;;;6240157;22;20154;-32
2023/06/27 04:19:25;;;;;;;10.98;8.00;;;13.70;99.90;;;;;;6241466;23;20087;-32
2023/06/27 04:21:51;;;;;;;12.05;7.30;;;13.70;99.90;;;;;;6240664;23;20043;-32
2023/06/27 04:24:17;;;;;;;12.40;7.10;;;13.80;99.90;;;;;;6242264;23;20015;-33
2023/06/27 04:26:43;;;;;;;8.68;6.93;;;13.80;99.90;;;;;;6242578;23;20008;-32
2023/06/27 04:29:09;;;;;;;9.88;7.22;;;13.80;99.90;;;;;;6242583;23;20012;-32
2023/06/27 04:31:35;;;;;;;13.35;8.23;;;13.80;99.90;;;;;;6241906;22;20066;-32
2023/06/27 04:34:01;;;;;;;12.30;7.28;;;13.90;99.90;;;;;;6240455;23;20016;-32
2023/06/27 04:36:27;;;;;;;9.73;7.80;;;13.90;99.90;;;;;;6238450;23;20012;-32
2023/06/27 04:38:53;;;;;;;10.40;7.30;;;14.00;99.90;;;;;;6240870;23;20101;-32
2023/06/27 04:41:18;;;;;;;10.35;7.30;;;14.00;99.90;;;;;;6239881;23;20012;-32
2023/06/27 04:43:44;;;;;;;14.68;7.75;;;14.00;99.90;;;;;;6242344;22;20011;-32
2023/06/27 04:46:10;;;;;;;9.93;7.25;;;14.10;99.90;;;;;;6236884;23;20039;-32
2023/06/27 04:48:36;;;;;;;12.25;8.45;;;14.20;99.90;;;;;;6234460;22;20019;-32
2023/06/27 04:51:03;;;;;;;10.77;8.18;;;14.20;99.90;;;;;;6236614;23;20332;-32
2023/06/27 04:53:30;;;;;;;11.77;9.05;;;14.30;99.90;;;;;;6236041;22;20027;-32
2023/06/27 04:55:58;;;;;;;11.50;8.50;;;14.30;99.90;;;;;;6237663;22;20392;-32
2023/06/27 04:58:24;;;;;;;12.32;8.27;;;14.30;99.90;;;;;;6237233;22;20022;-32
2023/06/27 05:00:51;;;;;;;10.57;8.65;;;14.40;99.90;;;;;;6239524;22;20016;-33
2023/06/27 05:03:20;;;;;;;10.20;8.82;;;14.40;99.90;;;;;;6241527;22;20019;-32
2023/06/27 05:05:46;;;;;;;11.90;8.85;;;14.50;99.90;;;;;;6242003;22;20339;-32
2023/06/27 05:08:12;;;;;;;14.15;9.43;;;14.60;99.90;;;;;;6239184;23;20043;-32
2023/06/27 05:10:38;;;;;;;14.20;7.93;;;14.60;99.90;;;;;;6242045;22;20340;-32
2023/06/27 05:13:03;;;;;;;13.00;9.13;;;14.70;99.90;;;;;;6243255;23;20040;-32
2023/06/27 05:15:29;;;;;;;13.45;9.15;;;14.80;99.90;;;;;;6243202;23;20462;-32
2023/06/27 05:18:15;;;;;;;11.10;7.75;;;14.80;99.90;;;;;;6243659;23;20439;-32
2023/06/27 05:20:45;;;;;;;12.35;8.25;;;14.90;99.90;;;;;;6242423;22;20118;-33
2023/06/27 05:23:11;;;;;;;13.00;8.48;;;15.00;99.90;;;;;;6241830;22;20019;-32
2023/06/27 05:25:37;;;;;;;11.30;8.88;;;15.10;99.90;;;;;;6242882;23;20447;-32
2023/06/27 05:28:03;;;;;;;14.77;8.68;;;15.20;99.90;;;;;;6243268;22;20316;-33
2023/06/27 05:30:30;;;;;;;11.85;7.82;;;15.30;99.90;;;;;;6243078;22;20339;-32
2023/06/27 05:32:57;;;;;;;14.18;9.23;;;15.40;99.90;;;;;;6242369;22;20008;-32
2023/06/27 05:35:24;;;;;;;10.60;7.50;;;15.50;99.90;;;;;;6238715;23;20447;-32
2023/06/27 05:37:50;;;;;;;12.98;7.82;;;15.60;99.90;;;;;;6240832;23;20048;-32
2023/06/27 05:40:16;;;;;;;12.75;8.85;;;15.80;99.90;;;;;;6242960;22;20381;-33
2023/06/27 05:42:42;;;;;;;9.55;7.57;;;15.90;99.90;;;;;;6240180;23;20118;-33
2023/06/27 05:45:08;;;;;;;11.18;7.15;;;16.00;99.90;;;;;;6242816;23;20083;-33
2023/06/27 05:47:34;;;;;;;10.15;7.30;;;16.20;99.90;;;;;;6239604;23;20090;-33
2023/06/27 05:50:00;;;;;;;12.07;7.82;;;16.30;99.90;;;;;;6241366;23;20058;-32
2023/06/27 05:52:28;;;;;;;10.25;7.30;;;16.50;99.90;;;;;;6240890;22;20004;-32
2023/06/27 05:54:54;;;;;;;11.10;6.53;;;16.60;99.90;;;;;;6242377;23;20016;-33
2023/06/27 05:57:20;;;;;;;9.85;6.38;;;16.70;99.90;;;;;;6239373;23;20031;-33
2023/06/27 05:59:45;;;;;;;12.07;6.55;;;16.90;99.90;;;;;;6239989;23;20459;-33
2023/06/27 06:02:11;;;;;;;9.52;6.30;;;17.00;99.90;;;;;;6241265;23;20013;-33
2023/06/27 06:04:37;;;;;;;11.75;6.35;;;17.10;99.90;;;;;;6241930;23;20564;-33
2023/06/27 06:07:03;;;;;;;8.38;5.60;;;17.30;99.90;;;;;;6242135;23;20012;-33
2023/06/27 06:09:30;;;;;;;6.75;5.45;;;17.40;99.90;;;;;;6241555;22;20004;-33
2023/06/27 06:11:56;;;;;;;8.38;4.57;;;17.50;99.90;;;;;;6241231;22;20439;-32
2023/06/27 06:14:22;;;;;;;8.00;4.75;;;17.70;99.90;;;;;;6241630;22;20009;-33
2023/06/27 06:16:48;;;;;;;7.90;4.35;;;17.80;99.90;;;;;;6240514;22;20472;-33
2023/06/27 06:19:14;;;;;;;6.03;3.67;;;17.90;99.90;;;;;;6239950;23;20023;-33
2023/06/27 06:21:40;;;;;;;5.20;3.15;;;18.00;99.90;;;;;;6239767;22;20343;-32
2023/06/27 06:24:08;;;;;;;9.57;3.85;;;18.20;99.90;;;;;;6240842;22;20436;-33
2023/06/27 06:26:35;;;;;;;4.68;2.50;;;18.40;99.90;;;;;;6237200;22;20288;-33
2023/06/27 06:29:04;;;;;;;5.63;3.22;;;18.50;99.90;;;;;;6233782;22;20553;-33
2023/06/27 06:31:30;;;;;;;4.18;2.50;;;18.60;99.90;;;;;;6231098;23;20201;-33
2023/06/27 06:33:57;;;;;;;7.78;3.03;;;18.70;99.90;;;;;;6233632;22;20040;-33
2023/06/27 06:36:23;;;;;;;4.05;2.65;;;18.90;99.90;;;;;;6234315;22;20348;-33
2023/06/27 06:38:49;;;;;;;6.55;2.63;;;18.90;99.90;;;;;;6234556;22;20091;-33
2023/06/27 06:41:14;;;;;;;4.82;2.28;;;19.00;99.90;;;;;;6234437;23;20044;-33
2023/06/27 06:43:40;;;;;;;3.72;2.67;;;19.10;99.90;;;;;;6238687;23;20007;-32
2023/06/27 06:46:06;;;;;;;7.70;2.97;;;19.20;99.90;;;;;;6240897;23;20016;-32
2023/06/27 06:48:31;;;;;;;8.15;2.40;;;19.40;99.90;;;;;;6239931;23;20020;-33
2023/06/27 06:50:57;;;;;;;4.68;2.30;;;19.50;99.90;;;;;;6240612;23;20063;-33
2023/06/27 06:53:23;;;;;;;4.45;2.00;;;19.60;99.90;;;;;;6239934;23;20083;-33
2023/06/27 06:55:49;;;;;;;6.35;2.35;;;19.80;99.90;;;;;;6240331;23;20404;-33
2023/06/27 06:58:16;;;;;;;3.70;1.67;;;19.90;99.90;;;;;;6239972;23;20016;-33
2023/06/27 07:00:45;;;;;;;4.80;1.90;;;20.20;99.90;;;;;;6238788;22;20012;-33
2023/06/27 07:03:11;;;;;;;2.72;2.05;;;20.30;99.90;;;;;;6239443;23;20012;-33
2023/06/27 07:05:37;;;;;;;3.75;2.00;;;20.40;99.90;;;;;;6240490;23;20023;-33
2023/06/27 07:08:04;;;;;;;7.10;2.55;;;20.60;99.90;;;;;;6239117;23;20008;-33
2023/06/27 07:10:30;;;;;;;4.10;1.88;;;20.70;99.90;;;;;;6237707;23;20012;-33
2023/06/27 07:12:55;;;;;;;5.88;2.03;;;20.80;99.90;;;;;;6239964;23;20376;-33
2023/06/27 07:15:23;;;;;;;5.70;1.77;;;20.90;99.90;;;;;;6240365;23;20054;-33
2023/06/27 07:17:50;;;;;;;4.18;1.40;;;20.80;99.90;;;;;;6239495;23;20058;-33
2023/06/27 07:20:16;;;;;;;2.78;1.45;;;20.90;99.90;;;;;;6240931;22;20054;-33
2023/06/27 07:22:42;;;;;;;3.47;1.40;;;20.90;99.90;;;;;;6239084;23;20069;-33
2023/06/27 07:25:08;;;;;;;4.75;1.50;;;21.00;99.90;;;;;;6240692;22;20087;-33
2023/06/27 07:27:33;;;;;;;4.03;1.20;;;21.10;99.90;;;;;;6240265;23;20027;-33
2023/06/27 07:29:59;;;;;;;2.80;1.10;;;21.20;99.90;;;;;;6240537;22;20010;-33
2023/06/27 07:32:25;;;;;;;4.47;1.45;;;21.30;99.90;;;;;;6240765;23;20036;-33
2023/06/27 07:34:51;;;;;;;2.65;1.45;;;21.50;99.90;;;;;;6242754;22;20027;-33
2023/06/27 07:37:17;;;;;;;2.92;1.20;;;21.80;99.90;;;;;;6242184;23;20088;-33
2023/06/27 07:42:11;;;;;;;4.35;1.42;;;22.20;99.90;;;;;;6305309;22;20030;-35
2023/06/27 07:44:40;;;;;;;3.33;1.38;;;22.10;99.90;;;;;;6303323;22;20057;-34
2023/06/27 07:47:06;;;;;;;3.25;1.30;;;22.20;99.90;;;;;;6305477;22;20097;-37
2023/06/27 07:49:37;;;;;;;3.47;1.30;;;22.20;99.90;;;;;;6305612;22;20038;-34
2023/06/27 07:52:06;;;;;;;3.38;1.33;;;22.20;99.70;;;;;;6304359;22;20008;-34
2023/06/27 07:54:31;;;;;;;3.58;1.30;;;22.20;98.30;;;;;;6305081;22;20007;-34
2023/06/27 07:56:57;;;;;;;4.03;1.55;;;22.20;97.50;;;;;;6305597;22;20012;-34
2023/06/27 07:59:23;;;;;;;3.03;1.20;;;22.20;97.30;;;;;;6305149;22;20053;-34
2023/06/27 08:01:48;;;;;;;2.22;1.27;;;22.10;97.60;;;;;;6304464;22;20022;-33
2023/06/27 08:04:17;;;;;;;2.60;1.05;;;21.90;97.60;;;;;;6304991;22;20137;-33
2023/06/27 08:06:46;;;;;;;3.75;1.40;;;21.70;97.80;;;;;;6304408;22;20120;-34
2023/06/27 08:09:12;;;;;;;3.33;1.20;;;21.70;97.60;;;;;;6275550;22;20454;-34
2023/06/27 08:11:37;;;;;;;2.38;0.93;;;21.50;96.50;;;;;;6304215;22;20104;-34
2023/06/27 08:14:03;;;;;;;4.22;1.40;;;21.30;95.00;;;;;;6304682;22;20014;-34
2023/06/27 08:16:29;;;;;;;5.05;1.77;;;21.30;95.10;;;;;;6304919;22;20375;-33
2023/06/27 08:18:54;;;;;;;3.30;1.20;;;21.10;95.20;;;;;;6276616;22;20011;-35
2023/06/27 08:21:20;;;;;;;2.63;1.13;;;21.10;94.70;;;;;;6304192;22;20015;-34
2023/06/27 08:23:46;;;;;;;2.45;1.02;;;21.00;94.50;;;;;;6305135;22;20013;-34
2023/06/27 08:26:15;;;;;;;2.75;1.38;;;21.00;95.30;;;;;;6303905;22;20017;-37
2023/06/27 08:28:42;;;;;;;3.00;1.10;;;21.00;95.50;;;;;;6305073;22;20078;-36
2023/06/27 08:31:07;;;;;;;5.65;1.10;;;20.90;96.80;;;;;;6303905;22;20501;-36
2023/06/27 08:33:35;;;;;;;3.05;1.05;;;20.90;96.60;;;;;;6304385;22;20054;-38
2023/06/27 08:36:01;;;;;;;4.72;1.52;;;20.90;96.20;;;;;;6304511;22;20064;-35
2023/06/27 08:38:27;;;;;;;2.90;1.20;;;21.20;97.20;;;;;;6304832;22;20015;-38
2023/06/27 08:40:54;;;;;;;3.65;1.10;;;21.50;97.70;;;;;;6304153;22;20015;-38
2023/06/27 08:43:20;;;;;;;4.05;1.10;;;21.90;95.00;;;;;;6303883;22;20330;-36
2023/06/27 08:45:48;;;;;;;4.13;1.20;;;22.30;91.70;;;;;;6304744;22;20461;-36
2023/06/27 08:48:15;;;;;;;2.65;1.25;;;22.60;85.20;;;;;;6304293;22;20007;-36
2023/06/27 08:50:42;;;;;;;6.07;1.45;;;22.90;81.30;;;;;;6304313;22;20372;-37
2023/06/27 08:53:29;;;;;;;3.72;1.13;;;23.20;80.70;;;;;;6304005;22;20397;-36
2023/06/27 08:56:03;;;;;;;3.08;1.40;;;23.30;74.30;;;;;;6304495;22;20011;-37
2023/06/27 08:58:45;;;;;;;3.65;1.23;;;23.50;70.20;;;;;;6303978;22;20022;-39
2023/06/27 09:01:11;;;;;;;1.73;0.93;;;23.50;67.60;;;;;;6304150;22;20384;-36
2023/06/27 09:03:37;;;;;;;2.67;1.05;;;23.70;67.60;;;;;;6276396;22;20022;-38
2023/06/27 09:06:05;;;;;;;3.15;0.90;;;23.60;64.00;;;;;;6304125;22;20015;-36
2023/06/27 09:08:35;;;;;;;2.15;0.80;;;23.60;63.40;;;;;;6304254;22;20134;-35
2023/06/27 09:11:03;;;;;;;2.63;1.00;;;23.60;61.90;;;;;;6303974;22;20004;-34
2023/06/27 09:13:31;;;;;;;2.78;0.90;;;23.40;61.40;;;;;;6303846;22;20087;-34
2023/06/27 09:15:59;;;;;;;3.30;1.00;;;23.30;61.70;;;;;;6304284;22;20015;-32
2023/06/27 09:18:25;;;;;;;2.25;1.10;;;23.20;61.50;;;;;;6304481;22;20330;-32
2023/06/27 09:20:54;;;;;;;2.70;1.40;;;23.30;62.70;;;;;;6276245;22;20096;-37
2023/06/27 09:23:26;;;;;;;5.13;2.45;;;23.40;63.50;;;;;;6278000;22;20016;-32
2023/06/27 09:26:11;;;;;;;1.45;0.93;;;23.40;63.70;;;;;;6304008;22;20046;-32
2023/06/27 09:28:53;;;;;;;3.65;0.90;;;23.40;61.40;;;;;;6303942;22;20003;-35
2023/06/27 09:31:25;;;;;;;1.73;0.90;;;23.50;60.20;;;;;;6303957;22;20079;-31
2023/06/27 09:33:50;;;;;;;3.63;0.95;;;23.40;61.50;;;;;;6304376;22;20023;-37
2023/06/27 09:36:40;;;;;;;4.20;1.00;;;23.30;61.50;;;;;;6304191;22;20007;-32
2023/06/27 09:39:07;;;;;;;2.53;1.08;;;23.20;59.60;;;;;;6304257;22;20506;-32
2023/06/27 09:41:47;;;;;;;2.35;0.80;;;23.30;62.50;;;;;;6303185;22;20014;-35
2023/06/27 09:44:16;;;;;;;3.10;1.00;;;23.30;61.60;;;;;;6303051;22;20003;-32
2023/06/27 09:46:44;;;;;;;1.88;0.85;;;23.20;61.00;;;;;;6303819;22;20097;-33
2023/06/27 09:49:10;;;;;;;3.67;0.90;;;23.20;60.20;;;;;;6303908;22;20011;-32
2023/06/27 09:51:36;;;;;;;2.88;1.10;;;23.50;62.00;;;;;;6303154;22;20008;-34
2023/06/27 09:54:02;;;;;;;3.70;1.20;;;23.70;62.40;;;;;;6303532;22;20012;-33
2023/06/27 09:56:32;;;;;;;4.53;1.40;;;23.70;62.00;;;;;;6303840;22;20007;-33
2023/06/27 09:59:08;;;;;;;3.67;1.08;;;23.80;62.20;;;;;;6303654;22;20015;-34
2023/06/27 10:01:36;;;;;;;3.92;0.88;;;23.80;62.30;;;;;;6302546;22;20011;-31
2023/06/27 10:04:03;;;;;;;3.33;1.33;;;23.80;62.30;;;;;;6303861;22;20011;-32
2023/06/27 10:06:31;;;;;;;2.75;1.05;;;23.80;62.70;;;;;;6303362;22;20007;-34
2023/06/27 10:08:57;;;;;;;1.50;0.75;;;23.80;63.30;;;;;;6303836;22;20133;-33
2023/06/27 10:11:23;;;;;;;3.40;1.13;;;23.90;62.20;;;;;;6303520;22;20007;-32
2023/06/27 10:13:52;;;;;;;3.03;1.08;;;23.90;61.80;;;;;;6302621;22;20086;-31
2023/06/27 10:16:19;;;;;;;4.68;1.20;;;23.80;61.60;;;;;;6275764;22;20090;-32
2023/06/27 10:18:49;;;;;;;2.25;1.00;;;24.20;62.50;;;;;;6303142;22;20007;-32
2023/06/27 10:21:17;;;;;;;3.33;1.05;;;24.20;61.20;;;;;;6302898;22;20061;-34
2023/06/27 10:23:53;;;;;;;2.13;0.75;;;24.30;60.30;;;;;;6303399;22;20011;-32
2023/06/27 10:26:25;;;;;;;1.40;0.80;;;24.50;60.30;;;;;;6303378;22;20044;-32
2023/06/27 10:28:51;;;;;;;2.08;0.77;;;24.40;57.40;;;;;;6303562;22;20101;-32
2023/06/27 10:31:55;;;;;;;3.10;1.00;;;24.20;57.70;;;;;;6274679;22;20008;-32
2023/06/27 10:34:28;;;;;;;1.85;0.93;;;24.20;57.20;;;;;;6208252;23;20013;-33
2023/06/27 10:36:59;;;;;;;2.95;1.00;;;24.20;58.40;;;;;;6208009;23;20364;-33
2023/06/27 10:39:54;;;;;;;7.18;1.40;;;24.20;58.50;;;;;;6260219;22;20086;-36
2023/06/27 10:42:20;;;;;;;1.85;0.80;;;24.50;58.30;;;;;;6302675;22;20521;-32
2023/06/27 10:45:03;;;;;;;2.33;1.20;;;25.10;59.40;;;;;;6303430;22;20113;-34
2023/06/27 10:47:38;;;;;;;4.90;1.20;;;25.20;57.80;;;;;;6303013;22;20029;-35
2023/06/27 10:50:12;;;;;;;2.30;1.05;;;25.10;58.50;;;;;;6302995;22;20007;-33
2023/06/27 10:53:01;;;;;;;4.82;1.58;;;25.10;57.80;;;;;;6302237;22;20043;-32
2023/06/27 10:55:29;;;;;;;3.97;1.25;;;25.30;58.70;;;;;;6290957;22;20042;-33
2023/06/27 10:58:14;;;;;;;3.47;1.20;;;25.40;58.60;;;;;;6303377;22;20333;-35
2023/06/27 11:00:46;;;;;;;3.60;1.40;;;25.70;57.90;;;;;;6303781;22;20021;-35
2023/06/27 11:03:18;;;;;;;4.47;1.38;;;25.60;58.40;;;;;;6304087;22;20319;-36
2023/06/27 11:06:13;;;;;;;4.03;1.23;;;25.40;57.80;;;;;;6303660;22;20065;-34
2023/06/27 11:08:40;;;;;;;1.83;0.98;;;25.80;58.00;;;;;;6304020;22;20007;-39
2023/06/27 11:11:13;;;;;;;5.63;1.42;;;25.30;57.70;;;;;;6304350;22;20094;-35
2023/06/27 11:13:44;;;;;;;4.30;1.33;;;25.20;56.60;;;;;;6304471;22;20008;-33
2023/06/27 11:16:14;;;;;;;4.07;0.90;;;24.70;56.30;;;;;;6304857;22;20463;-34
2023/06/27 11:18:42;;;;;;;3.75;1.02;;;25.20;58.00;;;;;;6304228;22;20096;-35
2023/06/27 11:21:14;;;;;;;2.63;1.02;;;25.80;58.70;;;;;;6305302;22;20017;-36
2023/06/27 11:23:40;;;;;;;3.22;1.15;;;26.00;57.20;;;;;;6304849;22;20008;-37
2023/06/27 11:26:05;;;;;;;4.18;1.02;;;25.80;55.90;;;;;;6305004;22;20064;-37
2023/06/27 11:28:31;;;;;;;4.78;1.33;;;25.20;55.40;;;;;;6305012;22;20007;-34
2023/06/27 11:30:59;;;;;;;3.33;1.00;;;24.90;55.20;;;;;;6304001;22;20078;-37
2023/06/27 11:33:25;;;;;;;4.60;1.10;;;24.50;55.00;;;;;;6304365;22;20061;-35
2023/06/27 11:35:51;;;;;;;2.92;0.90;;;24.10;55.40;;;;;;6303870;22;20008;-35
2023/06/27 11:38:17;;;;;;;2.65;1.00;;;24.00;56.20;;;;;;6277226;22;20022;-34
2023/06/27 11:40:50;;;;;;;3.30;1.13;;;23.80;56.70;;;;;;6277321;22;20023;-34
2023/06/27 11:43:16;;;;;;;3.90;1.10;;;23.70;57.60;;;;;;6305014;22;20026;-34
2023/06/27 11:45:49;;;;;;;3.70;1.17;;;23.50;57.40;;;;;;6304273;22;20120;-36
2023/06/27 11:48:15;;;;;;;4.38;1.02;;;23.40;58.20;;;;;;6305684;22;20011;-35
2023/06/27 11:50:57;;;;;;;4.57;1.30;;;23.10;58.30;;;;;;6304428;22;20303;-34
2023/06/27 11:53:24;;;;;;;5.95;1.33;;;22.90;59.30;;;;;;6305108;22;20334;-35
2023/06/27 11:55:50;;;;;;;5.25;1.30;;;22.80;60.10;;;;;;6304999;22;20061;-33
2023/06/27 11:58:19;;;;;;;3.95;1.05;;;22.70;61.10;;;;;;6304086;22;20381;-37
2023/06/27 12:00:49;;;;;;;3.95;1.25;;;22.70;61.00;;;;;;6305030;22;20512;-34
2023/06/27 12:03:15;;;;;;;3.60;1.00;;;22.80;61.80;;;;;;6304175;22;20145;-36
2023/06/27 12:05:44;;;;;;;2.60;0.98;;;23.40;62.00;;;;;;6305421;22;20061;-33
2023/06/27 12:08:11;;;;;;;4.18;1.00;;;24.10;60.30;;;;;;6304003;22;20067;-36
2023/06/27 12:10:57;;;;;;;2.80;1.20;;;24.20;59.30;;;;;;6304883;22;20288;-33
2023/06/27 12:13:37;;;;;;;7.63;1.25;;;24.10;58.50;;;;;;6276802;22;20018;-35
2023/06/27 12:16:04;;;;;;;3.92;1.13;;;23.90;58.70;;;;;;6304816;22;20105;-35
2023/06/27 12:18:38;;;;;;;4.20;1.10;;;23.80;59.40;;;;;;6304287;22;20076;-36
2023/06/27 12:21:04;;;;;;;3.08;1.13;;;23.90;60.00;;;;;;6304840;22;20072;-36
2023/06/27 12:23:36;;;;;;;4.60;1.90;;;23.90;59.60;;;;;;6304846;22;20015;-36
2023/06/27 12:26:04;;;;;;;2.58;0.93;;;23.90;60.70;;;;;;6304321;22;20011;-35
2023/06/27 12:28:32;;;;;;;4.22;1.20;;;24.00;59.90;;;;;;6304888;22;20068;-37
2023/06/27 12:30:57;;;;;;;3.78;1.30;;;24.10;59.40;;;;;;6303793;22;20007;-36
2023/06/27 12:33:24;;;;;;;2.95;1.10;;;24.10;59.80;;;;;;6304669;22;20338;-35
2023/06/27 12:35:54;;;;;;;3.83;1.00;;;24.20;59.10;;;;;;6304927;22;20015;-35
2023/06/27 12:38:23;;;;;;;2.33;1.02;;;24.50;58.70;;;;;;6304889;22;20018;-37
2023/06/27 12:40:49;;;;;;;2.30;0.80;;;24.30;57.60;;;;;;6303892;22;20452;-34
2023/06/27 12:43:15;;;;;;;1.85;0.95;;;24.40;57.90;;;;;;6304534;22;20027;-35
2023/06/27 12:45:40;;;;;;;2.45;1.10;;;24.50;58.30;;;;;;6304225;22;20473;-36
2023/06/27 12:48:06;;;;;;;3.47;1.10;;;24.90;58.70;;;;;;6305088;22;20003;-36
2023/06/27 12:50:32;;;;;;;3.17;0.93;;;25.30;58.50;;;;;;6303682;22;20408;-35
2023/06/27 12:52:57;;;;;;;2.33;1.10;;;25.40;57.60;;;;;;6303998;22;20144;-35
2023/06/27 12:55:23;;;;;;;4.65;1.10;;;25.50;55.90;;;;;;6304600;22;20439;-34
2023/06/27 12:57:49;;;;;;;2.50;1.08;;;25.30;55.40;;;;;;6304490;22;20015;-34
2023/06/27 13:00:19;;;;;;;3.50;1.10;;;24.90;54.80;;;;;;6304954;22;20053;-36
2023/06/27 13:02:47;;;;;;;3.72;1.10;;;24.80;55.40;;;;;;6304073;22;20390;-36
2023/06/27 13:05:14;;;;;;;3.85;1.25;;;24.60;55.60;;;;;;6303956;22;20053;-34
2023/06/27 13:07:39;;;;;;;3.40;1.30;;;24.60;55.50;;;;;;6304139;22;20016;-35
2023/06/27 13:10:06;;;;;;;5.30;1.00;;;24.60;56.20;;;;;;6303727;22;20060;-34
2023/06/27 13:12:32;;;;;;;3.90;1.20;;;24.50;56.20;;;;;;6303800;22;20007;-34
2023/06/27 13:15:01;;;;;;;3.00;1.10;;;24.40;56.30;;;;;;6304332;22;20007;-37
2023/06/27 13:17:26;;;;;;;3.75;1.00;;;24.70;55.40;;;;;;6304089;22;20011;-37
2023/06/27 13:19:52;;;;;;;3.28;1.08;;;25.00;56.50;;;;;;6304538;22;20476;-34
2023/06/27 13:22:18;;;;;;;4.18;1.20;;;25.20;56.90;;;;;;6303597;22;20396;-33